sensor_id;sensor_type;location;lat;lon;timestamp;temperature;humidity
20728;DHT22;10525;50.154;8.198;2023-03-01T00:02:15;-3.10;99.90
20728;DHT22;10525;50.154;8.198;2023-03-01T00:04:42;-3.00;99.90
20728;DHT22;10525;50.154;8.198;2023-03-01T00:07:09;-2.90;99.90
20728;DHT22;10525;50.154;8.198;2023-03-01T00:09:36;-2.80;99.90
20728;DHT22;10525;50.154;8.198;2023-03-01T00:12:04;-2.80;99.90
20728;DHT22;10525;50.154;8.198;2023-03-01T00:14:30;-2.80;99.90
20728;DHT22;10525;50.154;8.198;2023-03-01T00:16:58;-2.70;99.90
20728;DHT22;10525;50.154;8.198;2023-03-01T00:19:25;-2.80;99.90
20728;DHT22;10525;50.154;8.198;2023-03-01T00:21:52;-2.90;99.90
20728;DHT22;10525;50.154;8.198;2023-03-01T00:24:18;-3.00;99.90
20728;DHT22;10525;50.154;8.198;2023-03-01T00:26:45;-3.10;99.90
20728;DHT22;10525;50.154;8.198;2023-03-01T00:29:12;-3.10;99.90
20728;DHT22;10525;50.154;8.198;2023-03-01T00:31:38;-3.10;99.90
20728;DHT22;10525;50.154;8.198;2023-03-01T00:34:06;-3.10;99.90
20728;DHT22;10525;50.154;8.198;2023-03-01T00:36:35;-3.10;99.90
20728;DHT22;10525;50.154;8.198;2023-03-01T00:39:03;-3.10;99.90
20728;DHT22;10525;50.154;8.198;2023-03-01T00:41:30;-3.10;99.90
20728;DHT22;10525;50.154;8.198;2023-03-01T00:43:59;-3.20;99.90
20728;DHT22;10525;50.154;8.198;2023-03-01T00:46:26;-3.30;99.90
20728;DHT22;10525;50.154;8.198;2023-03-01T00:48:53;-3.30;99.90
20728;DHT22;10525;50.154;8.198;2023-03-01T00:51:23;-3.30;99.90
20728;DHT22;10525;50.154;8.198;2023-03-01T00:53:51;-3.30;99.90
20728;DHT22;10525;50.154;8.198;2023-03-01T00:56:17;-3.20;99.90
20728;DHT22;10525;50.154;8.198;2023-03-01T00:58:44;-3.20;99.90
20728;DHT22;10525;50.154;8.198;2023-03-01T01:01:13;-3.20;99.90
20728;DHT22;10525;50.154;8.198;2023-03-01T01:03:44;-3.30;99.90
20728;DHT22;10525;50.154;8.198;2023-03-01T01:06:15;-3.40;99.90
20728;DHT22;10525;50.154;8.198;2023-03-01T01:08:44;-3.40;99.90
20728;DHT22;10525;50.154;8.198;2023-03-01T01:11:10;-3.50;99.90
20728;DHT22;10525;50.154;8.198;2023-03-01T01:13:38;-3.60;99.90
20728;DHT22;10525;50.154;8.198;2023-03-01T01:16:05;-3.50;99.90
20728;DHT22;10525;50.154;8.198;2023-03-01T01:18:32;-3.50;99.90
20728;DHT22;10525;50.154;8.198;2023-03-01T01:21:03;-3.40;99.90
20728;DHT22;10525;50.154;8.198;2023-03-01T01:23:30;-3.50;99.90
20728;DHT22;10525;50.154;8.198;2023-03-01T01:26:03;-3.50;99.90
20728;DHT22;10525;50.154;8.198;2023-03-01T01:28:30;-3.50;99.90
20728;DHT22;10525;50.154;8.198;2023-03-01T01:30:56;-3.40;99.90
20728;DHT22;10525;50.154;8.198;2023-03-01T01:33:23;-3.40;99.90
20728;DHT22;10525;50.154;8.198;2023-03-01T01:35:50;-3.40;99.90
20728;DHT22;10525;50.154;8.198;2023-03-01T01:38:16;-3.40;99.90
20728;DHT22;10525;50.154;8.198;2023-03-01T01:40:43;-3.40;99.90
20728;DHT22;10525;50.154;8.198;2023-03-01T01:43:17;-3.30;99.90
20728;DHT22;10525;50.154;8.198;2023-03-01T01:45:45;-3.30;99.90
20728;DHT22;10525;50.154;8.198;2023-03-01T01:48:14;-3.30;99.90
20728;DHT22;10525;50.154;8.198;2023-03-01T01:50:42;-3.40;99.90
20728;DHT22;10525;50.154;8.198;2023-03-01T01:53:13;-3.40;99.90
20728;DHT22;10525;50.154;8.198;2023-03-01T01:55:42;-3.50;99.90
20728;DHT22;10525;50.154;8.198;2023-03-01T01:58:11;-3.50;99.90
20728;DHT22;10525;50.154;8.198;2023-03-01T02:00:40;-3.50;99.90
20728;DHT22;10525;50.154;8.198;2023-03-01T02:03:10;-3.50;99.90
20728;DHT22;10525;50.154;8.198;2023-03-01T02:05:42;-3.50;99.90
20728;DHT22;10525;50.154;8.198;2023-03-01T02:08:12;-3.40;99.90
20728;DHT22;10525;50.154;8.198;2023-03-01T02:10:40;-3.40;99.90
20728;DHT22;10525;50.154;8.198;2023-03-01T02:13:07;-3.50;99.90
20728;DHT22;10525;50.154;8.198;2023-03-01T02:15:35;-3.40;99.90
20728;DHT22;10525;50.154;8.198;2023-03-01T02:18:04;-3.40;99.90
20728;DHT22;10525;50.154;8.198;2023-03-01T02:20:35;-3.50;99.90
20728;DHT22;10525;50.154;8.198;2023-03-01T02:23:07;-3.50;99.90
20728;DHT22;10525;50.154;8.198;2023-03-01T02:25:40;-3.50;99.90
20728;DHT22;10525;50.154;8.198;2023-03-01T02:28:22;-3.50;99.90
20728;DHT22;10525;50.154;8.198;2023-03-01T02:30:49;-3.50;99.90
20728;DHT22;10525;50.154;8.198;2023-03-01T02:33:36;-3.50;99.90
20728;DHT22;10525;50.154;8.198;2023-03-01T02:36:06;-3.40;99.90
20728;DHT22;10525;50.154;8.198;2023-03-01T02:38:33;-3.40;99.90
20728;DHT22;10525;50.154;8.198;2023-03-01T02:41:00;-3.40;99.90
20728;DHT22;10525;50.154;8.198;2023-03-01T02:43:32;-3.30;99.90
20728;DHT22;10525;50.154;8.198;2023-03-01T02:46:05;-3.20;99.90
20728;DHT22;10525;50.154;8.198;2023-03-01T02:48:40;-3.20;99.90
20728;DHT22;10525;50.154;8.198;2023-03-01T02:51:18;-3.20;99.90
20728;DHT22;10525;50.154;8.198;2023-03-01T02:53:56;-3.30;99.90
20728;DHT22;10525;50.154;8.198;2023-03-01T02:56:26;-3.30;99.90
20728;DHT22;10525;50.154;8.198;2023-03-01T02:58:54;-3.30;99.90
20728;DHT22;10525;50.154;8.198;2023-03-01T03:01:26;-3.30;99.90
20728;DHT22;10525;50.154;8.198;2023-03-01T03:04:04;-3.30;99.90
20728;DHT22;10525;50.154;8.198;2023-03-01T03:06:31;-3.40;99.90
20728;DHT22;10525;50.154;8.198;2023-03-01T03:08:58;-3.40;99.90
20728;DHT22;10525;50.154;8.198;2023-03-01T03:11:25;-3.50;99.90
20728;DHT22;10525;50.154;8.198;2023-03-01T03:13:52;-3.60;99.90
20728;DHT22;10525;50.154;8.198;2023-03-01T03:16:20;-3.60;99.90
20728;DHT22;10525;50.154;8.198;2023-03-01T03:18:48;-3.60;99.90
20728;DHT22;10525;50.154;8.198;2023-03-01T03:21:16;-3.70;99.90
20728;DHT22;10525;50.154;8.198;2023-03-01T03:23:43;-3.70;99.90
20728;DHT22;10525;50.154;8.198;2023-03-01T03:26:10;-3.60;99.90
20728;DHT22;10525;50.154;8.198;2023-03-01T03:28:39;-3.70;99.90
20728;DHT22;10525;50.154;8.198;2023-03-01T03:31:06;-3.60;99.90
20728;DHT22;10525;50.154;8.198;2023-03-01T03:33:35;-3.60;99.90
20728;DHT22;10525;50.154;8.198;2023-03-01T03:36:02;-3.60;99.90
20728;DHT22;10525;50.154;8.198;2023-03-01T03:38:29;-3.50;99.90
20728;DHT22;10525;50.154;8.198;2023-03-01T03:41:00;-3.50;99.90
20728;DHT22;10525;50.154;8.198;2023-03-01T03:43:29;-3.60;99.90
20728;DHT22;10525;50.154;8.198;2023-03-01T03:45:56;-3.60;99.90
20728;DHT22;10525;50.154;8.198;2023-03-01T03:48:24;-3.60;99.90
20728;DHT22;10525;50.154;8.198;2023-03-01T03:50:53;-3.60;99.90
20728;DHT22;10525;50.154;8.198;2023-03-01T03:53:21;-3.60;99.90
20728;DHT22;10525;50.154;8.198;2023-03-01T03:55:48;-3.60;99.90
20728;DHT22;10525;50.154;8.198;2023-03-01T03:58:17;-3.60;99.90
20728;DHT22;10525;50.154;8.198;2023-03-01T04:00:46;-3.60;99.90
20728;DHT22;10525;50.154;8.198;2023-03-01T04:03:14;-3.50;99.90
20728;DHT22;10525;50.154;8.198;2023-03-01T04:05:41;-3.40;99.90
20728;DHT22;10525;50.154;8.198;2023-03-01T04:08:09;-3.30;99.90
20728;DHT22;10525;50.154;8.198;2023-03-01T04:10:38;-3.20;99.90
20728;DHT22;10525;50.154;8.198;2023-03-01T04:13:06;-3.30;99.90
20728;DHT22;10525;50.154;8.198;2023-03-01T04:15:33;-3.30;99.90
20728;DHT22;10525;50.154;8.198;2023-03-01T04:18:00;-3.40;99.90
20728;DHT22;10525;50.154;8.198;2023-03-01T04:20:29;-3.50;99.90
20728;DHT22;10525;50.154;8.198;2023-03-01T04:23:00;-3.60;99.90
20728;DHT22;10525;50.154;8.198;2023-03-01T04:25:37;-3.50;99.90
20728;DHT22;10525;50.154;8.198;2023-03-01T04:28:04;-3.50;99.90
20728;DHT22;10525;50.154;8.198;2023-03-01T04:30:31;-3.30;99.90
20728;DHT22;10525;50.154;8.198;2023-03-01T04:33:01;-3.30;99.90
20728;DHT22;10525;50.154;8.198;2023-03-01T04:35:28;-3.40;99.90
20728;DHT22;10525;50.154;8.198;2023-03-01T04:37:54;-3.30;99.90
20728;DHT22;10525;50.154;8.198;2023-03-01T04:40:21;-3.40;99.90
20728;DHT22;10525;50.154;8.198;2023-03-01T04:42:49;-3.40;99.90
20728;DHT22;10525;50.154;8.198;2023-03-01T04:45:16;-3.50;99.90
20728;DHT22;10525;50.154;8.198;2023-03-01T04:47:44;-3.60;99.90
20728;DHT22;10525;50.154;8.198;2023-03-01T04:50:13;-3.50;99.90
20728;DHT22;10525;50.154;8.198;2023-03-01T04:52:41;-3.60;99.90
20728;DHT22;10525;50.154;8.198;2023-03-01T04:55:08;-3.60;99.90
20728;DHT22;10525;50.154;8.198;2023-03-01T04:57:35;-3.60;99.90
20728;DHT22;10525;50.154;8.198;2023-03-01T05:00:06;-3.60;99.90
20728;DHT22;10525;50.154;8.198;2023-03-01T05:02:46;-3.70;99.90
20728;DHT22;10525;50.154;8.198;2023-03-01T05:05:14;-3.70;99.90
20728;DHT22;10525;50.154;8.198;2023-03-01T05:07:40;-3.80;99.90
20728;DHT22;10525;50.154;8.198;2023-03-01T05:10:08;-3.80;99.90
20728;DHT22;10525;50.154;8.198;2023-03-01T05:12:35;-3.80;99.90
20728;DHT22;10525;50.154;8.198;2023-03-01T05:15:05;-3.80;99.90
20728;DHT22;10525;50.154;8.198;2023-03-01T05:17:32;-3.90;99.90
20728;DHT22;10525;50.154;8.198;2023-03-01T05:19:59;-3.90;99.90
20728;DHT22;10525;50.154;8.198;2023-03-01T05:22:26;-3.80;99.90
20728;DHT22;10525;50.154;8.198;2023-03-01T05:24:53;-3.70;99.90
20728;DHT22;10525;50.154;8.198;2023-03-01T05:27:20;-3.60;99.90
20728;DHT22;10525;50.154;8.198;2023-03-01T05:29:48;-3.60;99.90
20728;DHT22;10525;50.154;8.198;2023-03-01T05:32:16;-3.60;99.90
20728;DHT22;10525;50.154;8.198;2023-03-01T05:34:42;-3.70;99.90
20728;DHT22;10525;50.154;8.198;2023-03-01T05:37:09;-3.80;99.90
20728;DHT22;10525;50.154;8.198;2023-03-01T05:39:36;-3.70;99.90
20728;DHT22;10525;50.154;8.198;2023-03-01T05:42:03;-3.70;99.90
20728;DHT22;10525;50.154;8.198;2023-03-01T05:44:30;-3.70;99.90
20728;DHT22;10525;50.154;8.198;2023-03-01T05:46:57;-3.80;99.90
20728;DHT22;10525;50.154;8.198;2023-03-01T05:49:25;-3.80;99.90
20728;DHT22;10525;50.154;8.198;2023-03-01T05:51:53;-3.70;99.90
20728;DHT22;10525;50.154;8.198;2023-03-01T05:54:20;-3.70;99.90
20728;DHT22;10525;50.154;8.198;2023-03-01T05:56:47;-3.70;99.90
20728;DHT22;10525;50.154;8.198;2023-03-01T05:59:14;-3.60;99.90
20728;DHT22;10525;50.154;8.198;2023-03-01T06:01:42;-3.70;99.90
20728;DHT22;10525;50.154;8.198;2023-03-01T06:04:09;-3.70;99.90
20728;DHT22;10525;50.154;8.198;2023-03-01T06:06:37;-3.70;99.90
20728;DHT22;10525;50.154;8.198;2023-03-01T06:09:04;-3.70;99.90
20728;DHT22;10525;50.154;8.198;2023-03-01T06:11:33;-3.70;99.90
20728;DHT22;10525;50.154;8.198;2023-03-01T06:14:00;-3.70;99.90
20728;DHT22;10525;50.154;8.198;2023-03-01T06:16:27;-3.70;99.90
20728;DHT22;10525;50.154;8.198;2023-03-01T06:18:53;-3.70;99.90
20728;DHT22;10525;50.154;8.198;2023-03-01T06:21:20;-3.70;99.90
20728;DHT22;10525;50.154;8.198;2023-03-01T06:23:48;-3.70;99.90
20728;DHT22;10525;50.154;8.198;2023-03-01T06:26:15;-3.70;99.90
20728;DHT22;10525;50.154;8.198;2023-03-01T06:28:41;-3.50;99.90
20728;DHT22;10525;50.154;8.198;2023-03-01T06:31:11;-3.50;99.90
20728;DHT22;10525;50.154;8.198;2023-03-01T06:33:38;-3.50;99.90
20728;DHT22;10525;50.154;8.198;2023-03-01T06:36:05;-3.50;99.90
20728;DHT22;10525;50.154;8.198;2023-03-01T06:38:32;-3.40;99.90
20728;DHT22;10525;50.154;8.198;2023-03-01T06:41:00;-3.30;99.90
20728;DHT22;10525;50.154;8.198;2023-03-01T06:43:27;-3.20;99.90
20728;DHT22;10525;50.154;8.198;2023-03-01T06:45:53;-3.10;99.90
20728;DHT22;10525;50.154;8.198;2023-03-01T06:48:20;-3.00;99.90
20728;DHT22;10525;50.154;8.198;2023-03-01T06:50:47;-2.80;99.90
20728;DHT22;10525;50.154;8.198;2023-03-01T06:53:13;-2.80;99.90
20728;DHT22;10525;50.154;8.198;2023-03-01T06:55:40;-2.70;99.90
20728;DHT22;10525;50.154;8.198;2023-03-01T06:58:09;-2.50;99.90
20728;DHT22;10525;50.154;8.198;2023-03-01T07:00:35;-2.40;99.90
20728;DHT22;10525;50.154;8.198;2023-03-01T07:03:02;-2.30;99.90
20728;DHT22;10525;50.154;8.198;2023-03-01T07:05:29;-2.20;99.90
20728;DHT22;10525;50.154;8.198;2023-03-01T07:07:56;-2.20;99.90
20728;DHT22;10525;50.154;8.198;2023-03-01T07:10:23;-2.20;99.90
20728;DHT22;10525;50.154;8.198;2023-03-01T07:12:50;-2.10;99.90
20728;DHT22;10525;50.154;8.198;2023-03-01T07:15:18;-2.00;99.90
20728;DHT22;10525;50.154;8.198;2023-03-01T07:17:44;-1.90;99.90
20728;DHT22;10525;50.154;8.198;2023-03-01T07:20:13;-1.80;99.90
20728;DHT22;10525;50.154;8.198;2023-03-01T07:22:41;-1.80;99.90
20728;DHT22;10525;50.154;8.198;2023-03-01T07:25:08;-1.70;99.90
20728;DHT22;10525;50.154;8.198;2023-03-01T07:27:35;-1.60;99.90
20728;DHT22;10525;50.154;8.198;2023-03-01T07:30:03;-1.40;99.90
20728;DHT22;10525;50.154;8.198;2023-03-01T07:32:31;-1.20;99.90
20728;DHT22;10525;50.154;8.198;2023-03-01T07:34:57;-0.90;99.90
20728;DHT22;10525;50.154;8.198;2023-03-01T07:37:24;-0.80;99.90
20728;DHT22;10525;50.154;8.198;2023-03-01T07:39:51;-0.60;99.90
20728;DHT22;10525;50.154;8.198;2023-03-01T07:42:17;-0.40;99.90
20728;DHT22;10525;50.154;8.198;2023-03-01T07:44:44;-0.20;99.90
20728;DHT22;10525;50.154;8.198;2023-03-01T07:47:11;-0.20;99.90
20728;DHT22;10525;50.154;8.198;2023-03-01T07:49:39;-0.10;99.90
20728;DHT22;10525;50.154;8.198;2023-03-01T07:52:05;-0.20;99.90
20728;DHT22;10525;50.154;8.198;2023-03-01T07:54:32;-0.10;99.90
20728;DHT22;10525;50.154;8.198;2023-03-01T07:56:59;-0.10;99.90
20728;DHT22;10525;50.154;8.198;2023-03-01T07:59:25;-0.10;99.90
20728;DHT22;10525;50.154;8.198;2023-03-01T08:01:54;-0.10;99.90
20728;DHT22;10525;50.154;8.198;2023-03-01T08:04:21;0.00;99.90
20728;DHT22;10525;50.154;8.198;2023-03-01T08:06:51;0.10;99.90
20728;DHT22;10525;50.154;8.198;2023-03-01T08:09:18;0.10;99.90
20728;DHT22;10525;50.154;8.198;2023-03-01T08:11:44;0.10;99.90
20728;DHT22;10525;50.154;8.198;2023-03-01T08:14:11;0.20;99.90
20728;DHT22;10525;50.154;8.198;2023-03-01T08:16:38;0.10;99.90
20728;DHT22;10525;50.154;8.198;2023-03-01T08:19:05;0.20;99.90
20728;DHT22;10525;50.154;8.198;2023-03-01T08:21:32;0.30;99.90
20728;DHT22;10525;50.154;8.198;2023-03-01T08:24:01;0.40;99.90
20728;DHT22;10525;50.154;8.198;2023-03-01T08:26:28;0.30;99.90
20728;DHT22;10525;50.154;8.198;2023-03-01T08:28:55;0.50;99.90
20728;DHT22;10525;50.154;8.198;2023-03-01T08:31:23;0.60;99.90
20728;DHT22;10525;50.154;8.198;2023-03-01T08:33:52;0.60;99.90
20728;DHT22;10525;50.154;8.198;2023-03-01T08:36:21;0.70;99.90
20728;DHT22;10525;50.154;8.198;2023-03-01T08:38:48;0.70;99.90
20728;DHT22;10525;50.154;8.198;2023-03-01T08:41:16;0.80;99.90
20728;DHT22;10525;50.154;8.198;2023-03-01T08:43:42;0.80;99.90
20728;DHT22;10525;50.154;8.198;2023-03-01T08:46:09;0.90;99.90
20728;DHT22;10525;50.154;8.198;2023-03-01T08:48:36;1.00;99.90
20728;DHT22;10525;50.154;8.198;2023-03-01T08:51:11;0.90;99.90
20728;DHT22;10525;50.154;8.198;2023-03-01T08:53:38;1.00;99.90
20728;DHT22;10525;50.154;8.198;2023-03-01T08:56:05;1.00;99.90
20728;DHT22;10525;50.154;8.198;2023-03-01T08:58:33;1.10;99.90
20728;DHT22;10525;50.154;8.198;2023-03-01T09:01:00;1.20;99.90
20728;DHT22;10525;50.154;8.198;2023-03-01T09:03:27;1.30;99.90
20728;DHT22;10525;50.154;8.198;2023-03-01T09:05:59;1.40;99.90
20728;DHT22;10525;50.154;8.198;2023-03-01T09:08:27;1.40;99.90
20728;DHT22;10525;50.154;8.198;2023-03-01T09:10:53;1.50;99.90
20728;DHT22;10525;50.154;8.198;2023-03-01T09:13:20;1.50;99.90
20728;DHT22;10525;50.154;8.198;2023-03-01T09:15:50;1.60;99.90
20728;DHT22;10525;50.154;8.198;2023-03-01T09:18:17;1.60;99.90
20728;DHT22;10525;50.154;8.198;2023-03-01T09:20:44;1.60;99.90
20728;DHT22;10525;50.154;8.198;2023-03-01T09:23:10;1.60;99.90
20728;DHT22;10525;50.154;8.198;2023-03-01T09:25:37;1.60;99.90
20728;DHT22;10525;50.154;8.198;2023-03-01T09:28:04;1.50;99.90
20728;DHT22;10525;50.154;8.198;2023-03-01T09:30:30;1.60;99.90
20728;DHT22;10525;50.154;8.198;2023-03-01T09:32:58;1.70;99.90
20728;DHT22;10525;50.154;8.198;2023-03-01T09:35:25;1.80;99.90
20728;DHT22;10525;50.154;8.198;2023-03-01T09:37:52;1.80;99.90
20728;DHT22;10525;50.154;8.198;2023-03-01T09:40:20;1.90;99.90
20728;DHT22;10525;50.154;8.198;2023-03-01T09:42:51;2.00;99.90
20728;DHT22;10525;50.154;8.198;2023-03-01T09:45:25;2.10;99.90
20728;DHT22;10525;50.154;8.198;2023-03-01T09:47:54;2.20;99.90
20728;DHT22;10525;50.154;8.198;2023-03-01T09:50:23;2.20;99.90
20728;DHT22;10525;50.154;8.198;2023-03-01T09:52:59;2.20;99.90
20728;DHT22;10525;50.154;8.198;2023-03-01T09:55:30;2.30;99.90
20728;DHT22;10525;50.154;8.198;2023-03-01T09:58:00;2.30;99.90
20728;DHT22;10525;50.154;8.198;2023-03-01T10:00:37;2.30;99.90
20728;DHT22;10525;50.154;8.198;2023-03-01T10:03:13;2.30;99.90
20728;DHT22;10525;50.154;8.198;2023-03-01T10:05:52;2.40;99.90
20728;DHT22;10525;50.154;8.198;2023-03-01T10:08:29;2.60;99.90
20728;DHT22;10525;50.154;8.198;2023-03-01T10:10:57;2.60;99.90
20728;DHT22;10525;50.154;8.198;2023-03-01T10:13:29;2.80;99.90
20728;DHT22;10525;50.154;8.198;2023-03-01T10:16:03;3.00;99.90
20728;DHT22;10525;50.154;8.198;2023-03-01T10:18:33;3.00;99.90
20728;DHT22;10525;50.154;8.198;2023-03-01T10:21:12;2.90;99.90
20728;DHT22;10525;50.154;8.198;2023-03-01T10:23:39;3.00;99.90
20728;DHT22;10525;50.154;8.198;2023-03-01T10:26:20;3.10;99.90
20728;DHT22;10525;50.154;8.198;2023-03-01T10:28:57;3.20;99.90
20728;DHT22;10525;50.154;8.198;2023-03-01T10:31:35;3.30;99.90
20728;DHT22;10525;50.154;8.198;2023-03-01T10:34:08;3.20;99.90
20728;DHT22;10525;50.154;8.198;2023-03-01T10:36:39;3.30;99.90
20728;DHT22;10525;50.154;8.198;2023-03-01T10:39:12;3.30;99.90
20728;DHT22;10525;50.154;8.198;2023-03-01T10:41:52;3.40;99.90
20728;DHT22;10525;50.154;8.198;2023-03-01T10:44:39;3.40;99.90
20728;DHT22;10525;50.154;8.198;2023-03-01T10:47:13;3.40;99.90
20728;DHT22;10525;50.154;8.198;2023-03-01T10:49:55;3.30;99.90
20728;DHT22;10525;50.154;8.198;2023-03-01T10:52:27;3.30;99.90
20728;DHT22;10525;50.154;8.198;2023-03-01T10:54:56;3.40;99.90
20728;DHT22;10525;50.154;8.198;2023-03-01T10:57:35;3.70;99.90
20728;DHT22;10525;50.154;8.198;2023-03-01T11:00:20;3.80;99.90
20728;DHT22;10525;50.154;8.198;2023-03-01T11:02:49;4.00;99.90
20728;DHT22;10525;50.154;8.198;2023-03-01T11:05:20;4.00;99.90
20728;DHT22;10525;50.154;8.198;2023-03-01T11:07:51;4.00;99.90
20728;DHT22;10525;50.154;8.198;2023-03-01T11:10:20;4.10;99.90
20728;DHT22;10525;50.154;8.198;2023-03-01T11:12:47;4.00;99.90
20728;DHT22;10525;50.154;8.198;2023-03-01T11:15:23;4.10;99.90
20728;DHT22;10525;50.154;8.198;2023-03-01T11:17:50;4.10;99.90
20728;DHT22;10525;50.154;8.198;2023-03-01T11:20:24;4.30;99.90
20728;DHT22;10525;50.154;8.198;2023-03-01T11:22:54;4.40;99.90
20728;DHT22;10525;50.154;8.198;2023-03-01T11:25:25;4.40;99.90
20728;DHT22;10525;50.154;8.198;2023-03-01T11:27:53;4.00;99.90
20728;DHT22;10525;50.154;8.198;2023-03-01T11:30:24;4.10;99.90
20728;DHT22;10525;50.154;8.198;2023-03-01T11:33:01;4.30;99.90
20728;DHT22;10525;50.154;8.198;2023-03-01T11:35:29;4.40;99.90
20728;DHT22;10525;50.154;8.198;2023-03-01T11:38:06;4.50;99.90
20728;DHT22;10525;50.154;8.198;2023-03-01T11:40:39;4.40;99.90
20728;DHT22;10525;50.154;8.198;2023-03-01T11:43:14;4.50;99.90
20728;DHT22;10525;50.154;8.198;2023-03-01T11:45:52;4.60;99.90
20728;DHT22;10525;50.154;8.198;2023-03-01T11:48:34;4.60;99.90
20728;DHT22;10525;50.154;8.198;2023-03-01T11:51:09;4.50;99.90
20728;DHT22;10525;50.154;8.198;2023-03-01T11:53:53;4.50;99.90
20728;DHT22;10525;50.154;8.198;2023-03-01T11:56:29;4.60;99.90
20728;DHT22;10525;50.154;8.198;2023-03-01T11:59:35;4.60;99.90
20728;DHT22;10525;50.154;8.198;2023-03-01T12:02:22;4.70;99.90
20728;DHT22;10525;50.154;8.198;2023-03-01T12:05:08;4.60;99.90
20728;DHT22;10525;50.154;8.198;2023-03-01T12:07:46;4.90;99.90
20728;DHT22;10525;50.154;8.198;2023-03-01T12:10:23;5.00;99.90
20728;DHT22;10525;50.154;8.198;2023-03-01T12:13:05;5.00;99.90
20728;DHT22;10525;50.154;8.198;2023-03-01T12:15:44;5.00;99.90
20728;DHT22;10525;50.154;8.198;2023-03-01T12:18:31;5.10;99.90
20728;DHT22;10525;50.154;8.198;2023-03-01T12:21:09;5.00;99.90
20728;DHT22;10525;50.154;8.198;2023-03-01T12:23:55;4.90;99.90
20728;DHT22;10525;50.154;8.198;2023-03-01T12:26:29;4.90;99.90
20728;DHT22;10525;50.154;8.198;2023-03-01T12:29:18;5.10;99.90
20728;DHT22;10525;50.154;8.198;2023-03-01T12:32:04;5.10;99.90
20728;DHT22;10525;50.154;8.198;2023-03-01T12:34:48;5.10;99.90
20728;DHT22;10525;50.154;8.198;2023-03-01T12:37:25;5.10;99.90
20728;DHT22;10525;50.154;8.198;2023-03-01T12:40:13;5.30;99.90
20728;DHT22;10525;50.154;8.198;2023-03-01T12:42:48;5.30;99.90
20728;DHT22;10525;50.154;8.198;2023-03-01T12:45:49;5.30;99.90
20728;DHT22;10525;50.154;8.198;2023-03-01T12:48:28;5.30;99.90
20728;DHT22;10525;50.154;8.198;2023-03-01T12:51:01;5.30;99.90
20728;DHT22;10525;50.154;8.198;2023-03-01T12:53:30;5.20;99.90
20728;DHT22;10525;50.154;8.198;2023-03-01T12:56:00;5.40;99.90
20728;DHT22;10525;50.154;8.198;2023-03-01T12:58:32;5.40;99.90
20728;DHT22;10525;50.154;8.198;2023-03-01T13:01:16;5.30;99.90
20728;DHT22;10525;50.154;8.198;2023-03-01T13:04:11;5.30;99.90
20728;DHT22;10525;50.154;8.198;2023-03-01T13:06:44;5.30;99.90
20728;DHT22;10525;50.154;8.198;2023-03-01T13:09:22;5.30;99.90
20728;DHT22;10525;50.154;8.198;2023-03-01T13:11:49;5.40;99.90
20728;DHT22;10525;50.154;8.198;2023-03-01T13:14:36;5.50;99.90
20728;DHT22;10525;50.154;8.198;2023-03-01T13:17:07;5.60;99.90
20728;DHT22;10525;50.154;8.198;2023-03-01T13:19:56;5.70;99.90
20728;DHT22;10525;50.154;8.198;2023-03-01T13:22:29;5.70;99.90
20728;DHT22;10525;50.154;8.198;2023-03-01T13:25:13;5.70;99.90
20728;DHT22;10525;50.154;8.198;2023-03-01T13:27:41;5.60;99.90
20728;DHT22;10525;50.154;8.198;2023-03-01T13:30:39;5.50;99.90
20728;DHT22;10525;50.154;8.198;2023-03-01T13:33:39;5.50;99.90
20728;DHT22;10525;50.154;8.198;2023-03-01T13:36:07;5.50;99.90
20728;DHT22;10525;50.154;8.198;2023-03-01T13:38:38;5.60;99.90
20728;DHT22;10525;50.154;8.198;2023-03-01T13:41:05;5.70;99.90
20728;DHT22;10525;50.154;8.198;2023-03-01T13:43:34;5.70;99.90
20728;DHT22;10525;50.154;8.198;2023-03-01T13:46:09;5.70;99.90
20728;DHT22;10525;50.154;8.198;2023-03-01T13:48:37;5.80;99.90
20728;DHT22;10525;50.154;8.198;2023-03-01T13:51:07;5.90;99.90
20728;DHT22;10525;50.154;8.198;2023-03-01T13:53:36;5.80;99.90
20728;DHT22;10525;50.154;8.198;2023-03-01T13:56:08;5.90;99.90
20728;DHT22;10525;50.154;8.198;2023-03-01T13:58:47;5.80;99.90
20728;DHT22;10525;50.154;8.198;2023-03-01T14:01:27;5.80;99.90
20728;DHT22;10525;50.154;8.198;2023-03-01T14:03:54;5.90;99.90
20728;DHT22;10525;50.154;8.198;2023-03-01T14:06:23;5.80;99.90
20728;DHT22;10525;50.154;8.198;2023-03-01T14:08:52;5.80;99.90
20728;DHT22;10525;50.154;8.198;2023-03-01T14:11:50;5.90;99.90
20728;DHT22;10525;50.154;8.198;2023-03-01T14:14:31;5.90;99.90
20728;DHT22;10525;50.154;8.198;2023-03-01T14:17:09;5.90;99.90
20728;DHT22;10525;50.154;8.198;2023-03-01T14:19:43;6.00;99.90
20728;DHT22;10525;50.154;8.198;2023-03-01T14:22:16;5.90;99.90
20728;DHT22;10525;50.154;8.198;2023-03-01T14:24:47;5.80;99.90
20728;DHT22;10525;50.154;8.198;2023-03-01T14:27:16;5.60;99.90
20728;DHT22;10525;50.154;8.198;2023-03-01T14:29:43;5.70;99.90
20728;DHT22;10525;50.154;8.198;2023-03-01T14:32:19;5.60;99.90
20728;DHT22;10525;50.154;8.198;2023-03-01T14:34:47;5.60;99.90
20728;DHT22;10525;50.154;8.198;2023-03-01T14:37:20;5.70;99.90
20728;DHT22;10525;50.154;8.198;2023-03-01T14:39:47;5.60;99.90
20728;DHT22;10525;50.154;8.198;2023-03-01T14:42:15;5.60;99.90
20728;DHT22;10525;50.154;8.198;2023-03-01T14:44:42;5.60;99.90
20728;DHT22;10525;50.154;8.198;2023-03-01T14:47:14;5.60;99.90
20728;DHT22;10525;50.154;8.198;2023-03-01T14:49:43;5.60;99.90
20728;DHT22;10525;50.154;8.198;2023-03-01T14:52:18;5.60;99.90
20728;DHT22;10525;50.154;8.198;2023-03-01T14:54:48;5.40;99.90
20728;DHT22;10525;50.154;8.198;2023-03-01T14:57:17;5.30;99.90
20728;DHT22;10525;50.154;8.198;2023-03-01T14:59:44;5.30;99.90
20728;DHT22;10525;50.154;8.198;2023-03-01T15:02:15;5.40;99.90
20728;DHT22;10525;50.154;8.198;2023-03-01T15:04:43;5.50;99.90
20728;DHT22;10525;50.154;8.198;2023-03-01T15:07:12;5.50;99.90
20728;DHT22;10525;50.154;8.198;2023-03-01T15:09:40;5.50;99.90
20728;DHT22;10525;50.154;8.198;2023-03-01T15:12:35;5.40;99.90
20728;DHT22;10525;50.154;8.198;2023-03-01T15:18:13;5.40;99.90
20728;DHT22;10525;50.154;8.198;2023-03-01T15:20:41;5.30;99.90
20728;DHT22;10525;50.154;8.198;2023-03-01T15:23:21;5.30;99.90
20728;DHT22;10525;50.154;8.198;2023-03-01T15:25:48;5.30;99.90
20728;DHT22;10525;50.154;8.198;2023-03-01T15:28:22;5.20;99.90
20728;DHT22;10525;50.154;8.198;2023-03-01T15:30:54;5.30;99.90
20728;DHT22;10525;50.154;8.198;2023-03-01T15:33:34;5.20;99.90
20728;DHT22;10525;50.154;8.198;2023-03-01T15:36:03;5.20;99.90
20728;DHT22;10525;50.154;8.198;2023-03-01T15:38:52;5.20;99.90
20728;DHT22;10525;50.154;8.198;2023-03-01T15:41:25;5.20;99.90
20728;DHT22;10525;50.154;8.198;2023-03-01T15:43:53;5.20;99.90
20728;DHT22;10525;50.154;8.198;2023-03-01T15:46:24;5.20;99.90
20728;DHT22;10525;50.154;8.198;2023-03-01T15:48:55;5.20;99.90
20728;DHT22;10525;50.154;8.198;2023-03-01T15:51:28;5.20;99.90
20728;DHT22;10525;50.154;8.198;2023-03-01T15:53:57;5.20;99.90
20728;DHT22;10525;50.154;8.198;2023-03-01T15:56:24;5.10;99.90
20728;DHT22;10525;50.154;8.198;2023-03-01T15:58:51;5.20;99.90
20728;DHT22;10525;50.154;8.198;2023-03-01T16:01:18;5.10;99.90
20728;DHT22;10525;50.154;8.198;2023-03-01T16:03:45;5.00;99.90